sensor_id;sensor_type;location;lat;lon;timestamp;P1;durP1;ratioP1;P2;durP2;ratioP2
53479;SDS011;56133;51.012;-1.648;2023-01-13T00:00:47;10.55;;;1.40;;
53479;SDS011;56133;51.012;-1.648;2023-01-13T00:03:12;17.05;;;1.67;;
53479;SDS011;56133;51.012;-1.648;2023-01-13T00:05:38;15.73;;;2.05;;
53479;SDS011;56133;51.012;-1.648;2023-01-13T00:08:04;12.55;;;1.95;;
53479;SDS011;56133;51.012;-1.648;2023-01-13T00:10:31;19.10;;;1.80;;
53479;SDS011;56133;51.012;-1.648;2023-01-13T00:13:00;13.30;;;2.33;;
53479;SDS011;56133;51.012;-1.648;2023-01-13T00:15:27;15.93;;;2.17;;
53479;SDS011;56133;51.012;-1.648;2023-01-13T00:17:52;12.52;;;1.90;;
53479;SDS011;56133;51.012;-1.648;2023-01-13T00:20:18;16.05;;;1.70;;
53479;SDS011;56133;51.012;-1.648;2023-01-13T00:22:43;20.30;;;2.10;;
53479;SDS011;56133;51.012;-1.648;2023-01-13T00:25:09;12.00;;;1.42;;
53479;SDS011;56133;51.012;-1.648;2023-01-13T00:27:35;18.10;;;2.25;;
53479;SDS011;56133;51.012;-1.648;2023-01-13T00:30:00;14.30;;;1.92;;
53479;SDS011;56133;51.012;-1.648;2023-01-13T00:32:26;12.98;;;1.98;;
53479;SDS011;56133;51.012;-1.648;2023-01-13T00:44:57;17.40;;;2.38;;
53479;SDS011;56133;51.012;-1.648;2023-01-13T01:20:49;23.17;;;3.17;;
53479;SDS011;56133;51.012;-1.648;2023-01-13T01:23:15;20.65;;;2.42;;
53479;SDS011;56133;51.012;-1.648;2023-01-13T01:25:40;21.73;;;3.80;;
53479;SDS011;56133;51.012;-1.648;2023-01-13T01:28:06;21.05;;;2.63;;
53479;SDS011;56133;51.012;-1.648;2023-01-13T01:30:31;20.83;;;2.70;;
53479;SDS011;56133;51.012;-1.648;2023-01-13T01:32:57;19.40;;;2.35;;
53479;SDS011;56133;51.012;-1.648;2023-01-13T01:35:22;20.90;;;2.75;;
53479;SDS011;56133;51.012;-1.648;2023-01-13T01:37:48;18.58;;;2.50;;
53479;SDS011;56133;51.012;-1.648;2023-01-13T01:40:14;21.63;;;2.95;;
53479;SDS011;56133;51.012;-1.648;2023-01-13T01:42:40;20.75;;;3.08;;
53479;SDS011;56133;51.012;-1.648;2023-01-13T01:45:34;20.55;;;3.00;;
53479;SDS011;56133;51.012;-1.648;2023-01-13T01:48:01;24.92;;;3.03;;
53479;SDS011;56133;51.012;-1.648;2023-01-13T01:57:12;23.38;;;2.42;;
53479;SDS011;56133;51.012;-1.648;2023-01-13T01:59:41;18.05;;;3.13;;
53479;SDS011;56133;51.012;-1.648;2023-01-13T02:02:07;27.38;;;3.60;;
53479;SDS011;56133;51.012;-1.648;2023-01-13T02:04:33;21.60;;;3.53;;
53479;SDS011;56133;51.012;-1.648;2023-01-13T02:07:03;24.75;;;3.47;;
53479;SDS011;56133;51.012;-1.648;2023-01-13T02:09:29;21.90;;;2.53;;
53479;SDS011;56133;51.012;-1.648;2023-01-13T02:11:55;20.25;;;2.92;;
53479;SDS011;56133;51.012;-1.648;2023-01-13T02:14:39;24.55;;;3.22;;
53479;SDS011;56133;51.012;-1.648;2023-01-13T02:30:48;16.15;;;2.33;;
53479;SDS011;56133;51.012;-1.648;2023-01-13T02:36:22;20.02;;;3.28;;
53479;SDS011;56133;51.012;-1.648;2023-01-13T02:39:11;21.70;;;2.80;;
53479;SDS011;56133;51.012;-1.648;2023-01-13T02:41:49;26.98;;;3.55;;
53479;SDS011;56133;51.012;-1.648;2023-01-13T02:44:40;24.77;;;3.30;;
53479;SDS011;56133;51.012;-1.648;2023-01-13T02:47:17;26.50;;;3.38;;
53479;SDS011;56133;51.012;-1.648;2023-01-13T02:49:45;23.55;;;3.47;;
53479;SDS011;56133;51.012;-1.648;2023-01-13T02:53:00;25.02;;;3.10;;
53479;SDS011;56133;51.012;-1.648;2023-01-13T02:57:27;25.83;;;3.22;;
53479;SDS011;56133;51.012;-1.648;2023-01-13T02:59:56;26.15;;;3.08;;
53479;SDS011;56133;51.012;-1.648;2023-01-13T03:02:21;30.35;;;3.58;;
53479;SDS011;56133;51.012;-1.648;2023-01-13T03:04:58;26.83;;;3.85;;
53479;SDS011;56133;51.012;-1.648;2023-01-13T03:13:18;22.65;;;3.15;;
53479;SDS011;56133;51.012;-1.648;2023-01-13T03:20:53;24.88;;;3.22;;
53479;SDS011;56133;51.012;-1.648;2023-01-13T03:23:36;27.80;;;3.20;;
53479;SDS011;56133;51.012;-1.648;2023-01-13T03:26:37;26.00;;;3.03;;
53479;SDS011;56133;51.012;-1.648;2023-01-13T03:29:09;19.08;;;2.72;;
53479;SDS011;56133;51.012;-1.648;2023-01-13T03:31:45;19.70;;;3.08;;
53479;SDS011;56133;51.012;-1.648;2023-01-13T03:34:21;18.77;;;3.13;;
53479;SDS011;56133;51.012;-1.648;2023-01-13T03:36:52;28.48;;;3.42;;
53479;SDS011;56133;51.012;-1.648;2023-01-13T03:39:21;16.00;;;2.72;;
53479;SDS011;56133;51.012;-1.648;2023-01-13T03:41:55;21.90;;;2.85;;
53479;SDS011;56133;51.012;-1.648;2023-01-13T03:44:46;25.75;;;3.45;;
53479;SDS011;56133;51.012;-1.648;2023-01-13T03:50:12;24.17;;;3.03;;
53479;SDS011;56133;51.012;-1.648;2023-01-13T03:52:48;25.33;;;3.05;;
53479;SDS011;56133;51.012;-1.648;2023-01-13T03:55:17;22.67;;;2.83;;
53479;SDS011;56133;51.012;-1.648;2023-01-13T03:57:52;24.92;;;3.83;;
53479;SDS011;56133;51.012;-1.648;2023-01-13T04:00:25;18.13;;;2.65;;
53479;SDS011;56133;51.012;-1.648;2023-01-13T04:03:58;18.58;;;2.90;;
53479;SDS011;56133;51.012;-1.648;2023-01-13T04:05:59;25.05;;;2.67;;
53479;SDS011;56133;51.012;-1.648;2023-01-13T04:08:34;30.23;;;3.10;;
53479;SDS011;56133;51.012;-1.648;2023-01-13T04:11:09;15.07;;;2.35;;
53479;SDS011;56133;51.012;-1.648;2023-01-13T04:13:42;29.13;;;3.13;;
53479;SDS011;56133;51.012;-1.648;2023-01-13T04:16:11;22.35;;;3.30;;
53479;SDS011;56133;51.012;-1.648;2023-01-13T04:18:37;22.27;;;3.03;;
53479;SDS011;56133;51.012;-1.648;2023-01-13T04:21:04;24.35;;;3.30;;
53479;SDS011;56133;51.012;-1.648;2023-01-13T04:23:30;25.17;;;2.97;;
53479;SDS011;56133;51.012;-1.648;2023-01-13T04:25:56;27.67;;;3.30;;
53479;SDS011;56133;51.012;-1.648;2023-01-13T04:28:22;24.05;;;3.25;;
53479;SDS011;56133;51.012;-1.648;2023-01-13T04:30:48;25.42;;;3.70;;
53479;SDS011;56133;51.012;-1.648;2023-01-13T04:33:14;25.50;;;3.53;;
53479;SDS011;56133;51.012;-1.648;2023-01-13T04:35:40;26.48;;;3.47;;
53479;SDS011;56133;51.012;-1.648;2023-01-13T04:38:07;35.80;;;4.22;;
53479;SDS011;56133;51.012;-1.648;2023-01-13T04:40:38;25.50;;;3.22;;
53479;SDS011;56133;51.012;-1.648;2023-01-13T04:43:04;22.35;;;3.08;;
53479;SDS011;56133;51.012;-1.648;2023-01-13T04:45:30;24.60;;;4.00;;
53479;SDS011;56133;51.012;-1.648;2023-01-13T04:47:55;24.95;;;3.75;;
53479;SDS011;56133;51.012;-1.648;2023-01-13T04:50:21;25.73;;;2.92;;
53479;SDS011;56133;51.012;-1.648;2023-01-13T04:52:50;23.52;;;3.90;;
53479;SDS011;56133;51.012;-1.648;2023-01-13T04:55:18;23.52;;;3.08;;
53479;SDS011;56133;51.012;-1.648;2023-01-13T04:57:44;19.48;;;3.47;;
53479;SDS011;56133;51.012;-1.648;2023-01-13T05:00:10;21.13;;;3.17;;
53479;SDS011;56133;51.012;-1.648;2023-01-13T05:02:37;22.05;;;3.33;;
53479;SDS011;56133;51.012;-1.648;2023-01-13T05:05:03;22.25;;;2.78;;
53479;SDS011;56133;51.012;-1.648;2023-01-13T05:07:28;24.17;;;3.17;;
53479;SDS011;56133;51.012;-1.648;2023-01-13T05:09:54;19.13;;;2.90;;
53479;SDS011;56133;51.012;-1.648;2023-01-13T05:12:19;20.73;;;2.75;;
53479;SDS011;56133;51.012;-1.648;2023-01-13T05:15:03;19.08;;;2.90;;
53479;SDS011;56133;51.012;-1.648;2023-01-13T05:17:48;21.73;;;2.97;;
53479;SDS011;56133;51.012;-1.648;2023-01-13T05:20:14;23.42;;;3.33;;
53479;SDS011;56133;51.012;-1.648;2023-01-13T05:22:39;20.42;;;3.08;;
53479;SDS011;56133;51.012;-1.648;2023-01-13T05:25:23;22.67;;;2.95;;
53479;SDS011;56133;51.012;-1.648;2023-01-13T05:27:50;24.70;;;3.55;;
53479;SDS011;56133;51.012;-1.648;2023-01-13T05:30:17;25.33;;;3.22;;
53479;SDS011;56133;51.012;-1.648;2023-01-13T05:32:44;28.33;;;4.25;;
53479;SDS011;56133;51.012;-1.648;2023-01-13T05:35:10;19.65;;;3.03;;
53479;SDS011;56133;51.012;-1.648;2023-01-13T05:37:35;19.65;;;3.22;;
53479;SDS011;56133;51.012;-1.648;2023-01-13T05:40:01;20.90;;;3.03;;
53479;SDS011;56133;51.012;-1.648;2023-01-13T05:42:45;22.85;;;2.95;;
53479;SDS011;56133;51.012;-1.648;2023-01-13T05:45:29;26.08;;;2.72;;
53479;SDS011;56133;51.012;-1.648;2023-01-13T05:47:56;27.88;;;3.88;;
53479;SDS011;56133;51.012;-1.648;2023-01-13T05:50:21;26.75;;;3.00;;
53479;SDS011;56133;51.012;-1.648;2023-01-13T05:52:47;17.05;;;2.47;;
53479;SDS011;56133;51.012;-1.648;2023-01-13T05:55:12;28.58;;;3.00;;
53479;SDS011;56133;51.012;-1.648;2023-01-13T05:57:39;20.73;;;3.22;;
53479;SDS011;56133;51.012;-1.648;2023-01-13T06:00:04;22.65;;;3.13;;
53479;SDS011;56133;51.012;-1.648;2023-01-13T06:02:30;20.55;;;3.47;;
53479;SDS011;56133;51.012;-1.648;2023-01-13T06:04:56;16.58;;;2.97;;
53479;SDS011;56133;51.012;-1.648;2023-01-13T06:07:21;23.25;;;3.17;;
53479;SDS011;56133;51.012;-1.648;2023-01-13T06:09:47;25.95;;;3.53;;
53479;SDS011;56133;51.012;-1.648;2023-01-13T06:12:12;21.90;;;3.45;;
53479;SDS011;56133;51.012;-1.648;2023-01-13T06:14:38;26.27;;;3.03;;
53479;SDS011;56133;51.012;-1.648;2023-01-13T06:17:10;27.75;;;3.33;;
53479;SDS011;56133;51.012;-1.648;2023-01-13T06:19:36;23.48;;;3.70;;
53479;SDS011;56133;51.012;-1.648;2023-01-13T06:22:07;21.65;;;2.90;;
53479;SDS011;56133;51.012;-1.648;2023-01-13T06:24:37;39.92;;;3.97;;
53479;SDS011;56133;51.012;-1.648;2023-01-13T06:27:04;20.45;;;3.15;;
53479;SDS011;56133;51.012;-1.648;2023-01-13T06:29:30;21.63;;;2.72;;
53479;SDS011;56133;51.012;-1.648;2023-01-13T06:31:55;23.83;;;3.47;;
53479;SDS011;56133;51.012;-1.648;2023-01-13T06:34:21;18.02;;;3.22;;
53479;SDS011;56133;51.012;-1.648;2023-01-13T06:36:47;19.30;;;2.65;;
53479;SDS011;56133;51.012;-1.648;2023-01-13T06:39:17;23.63;;;3.63;;
53479;SDS011;56133;51.012;-1.648;2023-01-13T06:41:47;19.00;;;2.85;;
53479;SDS011;56133;51.012;-1.648;2023-01-13T06:44:33;24.70;;;2.88;;
53479;SDS011;56133;51.012;-1.648;2023-01-13T06:46:58;25.17;;;3.30;;
53479;SDS011;56133;51.012;-1.648;2023-01-13T06:49:24;23.95;;;2.83;;
53479;SDS011;56133;51.012;-1.648;2023-01-13T06:51:49;27.05;;;3.40;;
53479;SDS011;56133;51.012;-1.648;2023-01-13T06:54:14;23.13;;;3.40;;
53479;SDS011;56133;51.012;-1.648;2023-01-13T06:56:40;26.45;;;3.17;;
53479;SDS011;56133;51.012;-1.648;2023-01-13T06:59:05;20.83;;;2.67;;
53479;SDS011;56133;51.012;-1.648;2023-01-13T07:01:31;27.92;;;3.42;;
53479;SDS011;56133;51.012;-1.648;2023-01-13T07:03:56;24.38;;;3.08;;
53479;SDS011;56133;51.012;-1.648;2023-01-13T07:06:22;31.08;;;4.47;;
53479;SDS011;56133;51.012;-1.648;2023-01-13T07:08:48;23.75;;;4.05;;
53479;SDS011;56133;51.012;-1.648;2023-01-13T07:11:13;26.13;;;3.33;;
53479;SDS011;56133;51.012;-1.648;2023-01-13T07:13:39;23.55;;;3.25;;
53479;SDS011;56133;51.012;-1.648;2023-01-13T07:16:23;21.90;;;2.90;;
53479;SDS011;56133;51.012;-1.648;2023-01-13T07:18:48;21.55;;;2.92;;
53479;SDS011;56133;51.012;-1.648;2023-01-13T07:21:14;26.13;;;2.90;;
53479;SDS011;56133;51.012;-1.648;2023-01-13T07:23:43;22.17;;;3.05;;
53479;SDS011;56133;51.012;-1.648;2023-01-13T07:26:10;26.70;;;2.95;;
53479;SDS011;56133;51.012;-1.648;2023-01-13T07:28:36;21.58;;;3.05;;
53479;SDS011;56133;51.012;-1.648;2023-01-13T07:31:02;20.13;;;3.05;;
53479;SDS011;56133;51.012;-1.648;2023-01-13T07:33:28;24.33;;;2.80;;
53479;SDS011;56133;51.012;-1.648;2023-01-13T07:35:57;20.92;;;2.83;;
53479;SDS011;56133;51.012;-1.648;2023-01-13T07:38:27;26.08;;;3.17;;
53479;SDS011;56133;51.012;-1.648;2023-01-13T07:40:53;23.30;;;3.58;;
53479;SDS011;56133;51.012;-1.648;2023-01-13T07:43:18;21.27;;;2.83;;
53479;SDS011;56133;51.012;-1.648;2023-01-13T07:45:59;28.20;;;3.15;;
53479;SDS011;56133;51.012;-1.648;2023-01-13T07:48:27;25.67;;;3.35;;
53479;SDS011;56133;51.012;-1.648;2023-01-13T07:50:53;19.17;;;2.60;;
53479;SDS011;56133;51.012;-1.648;2023-01-13T07:53:19;19.15;;;2.47;;
53479;SDS011;56133;51.012;-1.648;2023-01-13T07:55:45;21.20;;;2.85;;
53479;SDS011;56133;51.012;-1.648;2023-01-13T07:58:10;21.02;;;3.92;;
53479;SDS011;56133;51.012;-1.648;2023-01-13T08:00:36;28.15;;;3.40;;
53479;SDS011;56133;51.012;-1.648;2023-01-13T08:03:02;22.58;;;2.92;;
53479;SDS011;56133;51.012;-1.648;2023-01-13T08:05:28;25.92;;;3.65;;
53479;SDS011;56133;51.012;-1.648;2023-01-13T08:07:54;23.55;;;3.45;;
53479;SDS011;56133;51.012;-1.648;2023-01-13T08:10:19;22.10;;;3.53;;
53479;SDS011;56133;51.012;-1.648;2023-01-13T08:12:45;23.83;;;3.25;;
53479;SDS011;56133;51.012;-1.648;2023-01-13T08:15:29;25.92;;;3.53;;
53479;SDS011;56133;51.012;-1.648;2023-01-13T08:17:55;21.20;;;3.20;;
53479;SDS011;56133;51.012;-1.648;2023-01-13T08:20:21;26.65;;;3.50;;
53479;SDS011;56133;51.012;-1.648;2023-01-13T08:22:46;27.42;;;3.50;;
53479;SDS011;56133;51.012;-1.648;2023-01-13T08:25:12;24.15;;;4.03;;
53479;SDS011;56133;51.012;-1.648;2023-01-13T08:27:37;27.00;;;4.13;;
53479;SDS011;56133;51.012;-1.648;2023-01-13T08:30:04;22.95;;;3.83;;
53479;SDS011;56133;51.012;-1.648;2023-01-13T08:32:29;27.73;;;4.03;;
53479;SDS011;56133;51.012;-1.648;2023-01-13T08:34:55;27.45;;;3.55;;
53479;SDS011;56133;51.012;-1.648;2023-01-13T08:37:20;24.83;;;3.35;;
53479;SDS011;56133;51.012;-1.648;2023-01-13T08:39:46;28.15;;;4.13;;
53479;SDS011;56133;51.012;-1.648;2023-01-13T08:42:11;23.55;;;3.75;;
53479;SDS011;56133;51.012;-1.648;2023-01-13T08:44:37;21.90;;;4.28;;
53479;SDS011;56133;51.012;-1.648;2023-01-13T08:47:02;17.25;;;2.80;;
53479;SDS011;56133;51.012;-1.648;2023-01-13T08:49:28;20.55;;;3.10;;
53479;SDS011;56133;51.012;-1.648;2023-01-13T08:51:54;21.50;;;3.05;;
53479;SDS011;56133;51.012;-1.648;2023-01-13T08:54:19;23.05;;;3.17;;
53479;SDS011;56133;51.012;-1.648;2023-01-13T08:56:45;22.05;;;2.70;;
53479;SDS011;56133;51.012;-1.648;2023-01-13T08:59:11;18.20;;;2.35;;
53479;SDS011;56133;51.012;-1.648;2023-01-13T09:01:37;21.08;;;3.15;;
53479;SDS011;56133;51.012;-1.648;2023-01-13T09:04:06;25.13;;;3.00;;
53479;SDS011;56133;51.012;-1.648;2023-01-13T09:06:37;21.05;;;2.70;;
53479;SDS011;56133;51.012;-1.648;2023-01-13T09:09:02;20.67;;;3.45;;
53479;SDS011;56133;51.012;-1.648;2023-01-13T09:11:30;24.70;;;4.72;;
53479;SDS011;56133;51.012;-1.648;2023-01-13T09:14:19;23.77;;;3.80;;
53479;SDS011;56133;51.012;-1.648;2023-01-13T09:16:46;22.92;;;3.58;;
53479;SDS011;56133;51.012;-1.648;2023-01-13T09:19:11;22.92;;;6.28;;
53479;SDS011;56133;51.012;-1.648;2023-01-13T09:21:37;24.88;;;7.00;;
53479;SDS011;56133;51.012;-1.648;2023-01-13T09:24:02;33.95;;;11.93;;
53479;SDS011;56133;51.012;-1.648;2023-01-13T09:26:28;44.85;;;18.02;;
53479;SDS011;56133;51.012;-1.648;2023-01-13T09:28:53;44.00;;;12.95;;
53479;SDS011;56133;51.012;-1.648;2023-01-13T09:31:19;44.33;;;14.15;;
53479;SDS011;56133;51.012;-1.648;2023-01-13T09:33:44;48.00;;;13.43;;
53479;SDS011;56133;51.012;-1.648;2023-01-13T09:36:28;45.00;;;14.55;;
53479;SDS011;56133;51.012;-1.648;2023-01-13T09:38:54;79.85;;;28.77;;
53479;SDS011;56133;51.012;-1.648;2023-01-13T09:41:26;126.65;;;49.50;;
53479;SDS011;56133;51.012;-1.648;2023-01-13T09:44:13;208.82;;;78.60;;
53479;SDS011;56133;51.012;-1.648;2023-01-13T09:46:50;174.00;;;68.57;;
53479;SDS011;56133;51.012;-1.648;2023-01-13T09:49:23;77.55;;;29.67;;
53479;SDS011;56133;51.012;-1.648;2023-01-13T09:54:32;92.60;;;36.95;;
53479;SDS011;56133;51.012;-1.648;2023-01-13T09:57:07;161.93;;;72.38;;
53479;SDS011;56133;51.012;-1.648;2023-01-13T09:59:34;86.40;;;39.08;;
53479;SDS011;56133;51.012;-1.648;2023-01-13T10:05:08;55.65;;;26.90;;
53479;SDS011;56133;51.012;-1.648;2023-01-13T10:07:35;39.92;;;15.00;;
53479;SDS011;56133;51.012;-1.648;2023-01-13T10:10:09;65.90;;;35.05;;
53479;SDS011;56133;51.012;-1.648;2023-01-13T10:12:41;93.32;;;48.97;;
53479;SDS011;56133;51.012;-1.648;2023-01-13T10:15:28;43.47;;;27.77;;
53479;SDS011;56133;51.012;-1.648;2023-01-13T10:20:34;29.45;;;10.30;;
53479;SDS011;56133;51.012;-1.648;2023-01-13T10:26:20;29.17;;;7.20;;
53479;SDS011;56133;51.012;-1.648;2023-01-13T10:28:55;21.85;;;5.07;;
53479;SDS011;56133;51.012;-1.648;2023-01-13T10:31:22;28.48;;;13.25;;
53479;SDS011;56133;51.012;-1.648;2023-01-13T10:33:54;31.00;;;11.93;;
53479;SDS011;56133;51.012;-1.648;2023-01-13T10:36:23;26.70;;;8.48;;
53479;SDS011;56133;51.012;-1.648;2023-01-13T10:38:48;50.67;;;24.10;;
53479;SDS011;56133;51.012;-1.648;2023-01-13T10:44:00;35.95;;;14.70;;
53479;SDS011;56133;51.012;-1.648;2023-01-13T10:46:29;25.42;;;5.43;;
53479;SDS011;56133;51.012;-1.648;2023-01-13T10:49:00;52.28;;;32.78;;
53479;SDS011;56133;51.012;-1.648;2023-01-13T10:51:29;38.40;;;18.05;;
53479;SDS011;56133;51.012;-1.648;2023-01-13T10:54:01;53.05;;;31.45;;
53479;SDS011;56133;51.012;-1.648;2023-01-13T10:56:42;39.25;;;17.17;;
53479;SDS011;56133;51.012;-1.648;2023-01-13T10:59:12;67.75;;;45.30;;
53479;SDS011;56133;51.012;-1.648;2023-01-13T11:01:41;26.40;;;6.82;;
53479;SDS011;56133;51.012;-1.648;2023-01-13T11:06:55;55.13;;;29.83;;
53479;SDS011;56133;51.012;-1.648;2023-01-13T11:09:21;39.67;;;17.67;;
53479;SDS011;56133;51.012;-1.648;2023-01-13T11:11:47;36.70;;;16.20;;
53479;SDS011;56133;51.012;-1.648;2023-01-13T11:14:21;58.42;;;30.67;;
53479;SDS011;56133;51.012;-1.648;2023-01-13T11:16:57;119.13;;;74.90;;
53479;SDS011;56133;51.012;-1.648;2023-01-13T11:19:29;76.22;;;43.50;;
53479;SDS011;56133;51.012;-1.648;2023-01-13T11:27:21;27.00;;;10.23;;
53479;SDS011;56133;51.012;-1.648;2023-01-13T11:32:36;24.08;;;9.35;;
53479;SDS011;56133;51.012;-1.648;2023-01-13T11:35:23;23.45;;;7.10;;
53479;SDS011;56133;51.012;-1.648;2023-01-13T11:37:52;26.50;;;10.50;;
53479;SDS011;56133;51.012;-1.648;2023-01-13T11:46:10;30.80;;;11.75;;
53479;SDS011;56133;51.012;-1.648;2023-01-13T11:48:36;22.88;;;5.70;;
53479;SDS011;56133;51.012;-1.648;2023-01-13T11:53:51;155.52;;;76.00;;
53479;SDS011;56133;51.012;-1.648;2023-01-13T12:08:17;90.50;;;40.05;;
53479;SDS011;56133;51.012;-1.648;2023-01-13T12:16:36;37.47;;;17.30;;
53479;SDS011;56133;51.012;-1.648;2023-01-13T12:19:24;29.15;;;10.82;;
53479;SDS011;56133;51.012;-1.648;2023-01-13T12:22:12;21.15;;;6.80;;
53479;SDS011;56133;51.012;-1.648;2023-01-13T12:27:15;22.67;;;5.80;;
53479;SDS011;56133;51.012;-1.648;2023-01-13T12:30:09;20.92;;;4.35;;
53479;SDS011;56133;51.012;-1.648;2023-01-13T12:32:46;24.65;;;7.82;;
53479;SDS011;56133;51.012;-1.648;2023-01-13T12:43:31;25.30;;;5.88;;
53479;SDS011;56133;51.012;-1.648;2023-01-13T12:51:30;19.45;;;3.92;;
53479;SDS011;56133;51.012;-1.648;2023-01-13T12:56:55;25.42;;;3.60;;
53479;SDS011;56133;51.012;-1.648;2023-01-13T13:01:47;20.13;;;3.78;;
53479;SDS011;56133;51.012;-1.648;2023-01-13T13:04:19;21.48;;;3.50;;
53479;SDS011;56133;51.012;-1.648;2023-01-13T13:07:08;19.40;;;3.88;;
53479;SDS011;56133;51.012;-1.648;2023-01-13T13:09:41;16.65;;;2.78;;
53479;SDS011;56133;51.012;-1.648;2023-01-13T13:15:23;21.67;;;3.42;;
53479;SDS011;56133;51.012;-1.648;2023-01-13T13:23:37;17.98;;;3.13;;
53479;SDS011;56133;51.012;-1.648;2023-01-13T13:36:25;21.25;;;3.97;;
53479;SDS011;56133;51.012;-1.648;2023-01-13T13:39:16;18.95;;;3.33;;
53479;SDS011;56133;51.012;-1.648;2023-01-13T13:45:02;19.25;;;3.60;;
53479;SDS011;56133;51.012;-1.648;2023-01-13T13:51:15;18.75;;;3.25;;
53479;SDS011;56133;51.012;-1.648;2023-01-13T13:54:01;19.02;;;3.47;;
53479;SDS011;56133;51.012;-1.648;2023-01-13T13:56:27;25.83;;;3.90;;
53479;SDS011;56133;51.012;-1.648;2023-01-13T13:58:59;19.83;;;4.15;;
53479;SDS011;56133;51.012;-1.648;2023-01-13T14:01:37;19.83;;;3.33;;
53479;SDS011;56133;51.012;-1.648;2023-01-13T14:04:22;18.95;;;2.95;;
53479;SDS011;56133;51.012;-1.648;2023-01-13T14:09:22;13.05;;;2.50;;
53479;SDS011;56133;51.012;-1.648;2023-01-13T14:12:01;17.60;;;2.80;;
53479;SDS011;56133;51.012;-1.648;2023-01-13T14:14:30;17.80;;;3.38;;
53479;SDS011;56133;51.012;-1.648;2023-01-13T14:16:56;15.13;;;2.38;;
53479;SDS011;56133;51.012;-1.648;2023-01-13T14:22:01;15.95;;;2.47;;
53479;SDS011;56133;51.012;-1.648;2023-01-13T14:24:27;18.08;;;2.65;;
53479;SDS011;56133;51.012;-1.648;2023-01-13T14:27:06;17.50;;;3.15;;
53479;SDS011;56133;51.012;-1.648;2023-01-13T14:29:39;16.75;;;2.50;;
53479;SDS011;56133;51.012;-1.648;2023-01-13T14:32:04;13.93;;;1.88;;
53479;SDS011;56133;51.012;-1.648;2023-01-13T14:34:31;15.40;;;2.85;;
53479;SDS011;56133;51.012;-1.648;2023-01-13T14:36:58;13.00;;;2.78;;
53479;SDS011;56133;51.012;-1.648;2023-01-13T14:39:31;15.48;;;2.58;;
53479;SDS011;56133;51.012;-1.648;2023-01-13T14:41:59;12.95;;;2.47;;
53479;SDS011;56133;51.012;-1.648;2023-01-13T14:46:51;17.63;;;2.83;;
53479;SDS011;56133;51.012;-1.648;2023-01-13T14:51:52;16.42;;;3.03;;
53479;SDS011;56133;51.012;-1.648;2023-01-13T14:59:42;22.77;;;4.28;;
53479;SDS011;56133;51.012;-1.648;2023-01-13T15:10:21;19.17;;;2.97;;
53479;SDS011;56133;51.012;-1.648;2023-01-13T15:12:49;24.35;;;3.55;;
53479;SDS011;56133;51.012;-1.648;2023-01-13T15:17:54;21.80;;;2.95;;
53479;SDS011;56133;51.012;-1.648;2023-01-13T15:20:21;18.48;;;2.95;;
53479;SDS011;56133;51.012;-1.648;2023-01-13T15:22:48;22.20;;;4.53;;
53479;SDS011;56133;51.012;-1.648;2023-01-13T15:25:15;25.17;;;7.53;;
53479;SDS011;56133;51.012;-1.648;2023-01-13T15:27:42;31.70;;;12.00;;
53479;SDS011;56133;51.012;-1.648;2023-01-13T15:30:41;27.92;;;8.73;;
53479;SDS011;56133;51.012;-1.648;2023-01-13T15:33:00;25.02;;;6.28;;
53479;SDS011;56133;51.012;-1.648;2023-01-13T15:35:26;21.52;;;4.53;;
53479;SDS011;56133;51.012;-1.648;2023-01-13T15:37:56;18.02;;;3.83;;
53479;SDS011;56133;51.012;-1.648;2023-01-13T15:40:23;22.25;;;6.28;;
53479;SDS011;56133;51.012;-1.648;2023-01-13T15:42:53;21.33;;;6.80;;
53479;SDS011;56133;51.012;-1.648;2023-01-13T15:45:37;19.92;;;6.25;;
53479;SDS011;56133;51.012;-1.648;2023-01-13T15:48:21;18.70;;;4.13;;
53479;SDS011;56133;51.012;-1.648;2023-01-13T15:50:48;15.43;;;2.88;;
53479;SDS011;56133;51.012;-1.648;2023-01-13T15:53:14;18.05;;;3.25;;
53479;SDS011;56133;51.012;-1.648;2023-01-13T15:55:40;16.95;;;2.92;;
53479;SDS011;56133;51.012;-1.648;2023-01-13T15:58:18;21.70;;;5.03;;
53479;SDS011;56133;51.012;-1.648;2023-01-13T16:00:45;17.85;;;3.83;;
53479;SDS011;56133;51.012;-1.648;2023-01-13T16:03:13;19.95;;;5.15;;
53479;SDS011;56133;51.012;-1.648;2023-01-13T16:05:40;21.65;;;5.40;;
53479;SDS011;56133;51.012;-1.648;2023-01-13T16:10:58;21.33;;;2.88;;
53479;SDS011;56133;51.012;-1.648;2023-01-13T16:13:23;17.95;;;4.78;;
53479;SDS011;56133;51.012;-1.648;2023-01-13T16:15:49;14.93;;;3.05;;
53479;SDS011;56133;51.012;-1.648;2023-01-13T16:18:16;17.27;;;5.55;;
53479;SDS011;56133;51.012;-1.648;2023-01-13T16:20:43;37.20;;;15.73;;
53479;SDS011;56133;51.012;-1.648;2023-01-13T16:23:08;44.72;;;15.40;;
53479;SDS011;56133;51.012;-1.648;2023-01-13T16:25:34;39.75;;;11.27;;
53479;SDS011;56133;51.012;-1.648;2023-01-13T16:28:00;84.25;;;29.92;;
53479;SDS011;56133;51.012;-1.648;2023-01-13T16:30:30;48.90;;;17.70;;
53479;SDS011;56133;51.012;-1.648;2023-01-13T16:32:57;30.50;;;9.55;;
53479;SDS011;56133;51.012;-1.648;2023-01-13T16:35:23;27.73;;;9.68;;
53479;SDS011;56133;51.012;-1.648;2023-01-13T16:37:49;27.13;;;7.47;;
53479;SDS011;56133;51.012;-1.648;2023-01-13T16:40:20;21.23;;;6.25;;
53479;SDS011;56133;51.012;-1.648;2023-01-13T16:42:48;26.02;;;5.85;;
53479;SDS011;56133;51.012;-1.648;2023-01-13T16:45:14;18.83;;;5.65;;
53479;SDS011;56133;51.012;-1.648;2023-01-13T16:47:39;16.90;;;4.50;;
53479;SDS011;56133;51.012;-1.648;2023-01-13T16:50:08;19.40;;;4.40;;
53479;SDS011;56133;51.012;-1.648;2023-01-13T16:52:43;22.55;;;3.90;;
53479;SDS011;56133;51.012;-1.648;2023-01-13T16:55:09;17.17;;;4.00;;
53479;SDS011;56133;51.012;-1.648;2023-01-13T16:57:34;15.43;;;3.40;;
53479;SDS011;56133;51.012;-1.648;2023-01-13T17:00:00;30.40;;;8.50;;
53479;SDS011;56133;51.012;-1.648;2023-01-13T17:02:25;27.38;;;8.23;;
53479;SDS011;56133;51.012;-1.648;2023-01-13T17:04:50;28.45;;;5.40;;
53479;SDS011;56133;51.012;-1.648;2023-01-13T17:07:16;24.33;;;6.90;;
53479;SDS011;56133;51.012;-1.648;2023-01-13T17:09:42;29.15;;;8.82;;
53479;SDS011;56133;51.012;-1.648;2023-01-13T17:12:08;32.70;;;9.60;;
53479;SDS011;56133;51.012;-1.648;2023-01-13T17:14:34;36.00;;;14.05;;
53479;SDS011;56133;51.012;-1.648;2023-01-13T17:16:59;28.55;;;8.77;;
53479;SDS011;56133;51.012;-1.648;2023-01-13T17:19:25;41.10;;;13.32;;
53479;SDS011;56133;51.012;-1.648;2023-01-13T17:21:51;28.45;;;8.52;;
53479;SDS011;56133;51.012;-1.648;2023-01-13T17:24:16;37.25;;;11.45;;
53479;SDS011;56133;51.012;-1.648;2023-01-13T17:26:43;32.95;;;9.55;;
53479;SDS011;56133;51.012;-1.648;2023-01-13T17:29:14;28.40;;;8.30;;
53479;SDS011;56133;51.012;-1.648;2023-01-13T17:31:47;35.33;;;12.18;;
53479;SDS011;56133;51.012;-1.648;2023-01-13T17:34:14;36.30;;;8.95;;
53479;SDS011;56133;51.012;-1.648;2023-01-13T17:36:39;38.33;;;11.02;;
53479;SDS011;56133;51.012;-1.648;2023-01-13T17:39:08;35.30;;;8.77;;
53479;SDS011;56133;51.012;-1.648;2023-01-13T17:41:39;35.78;;;11.18;;
53479;SDS011;56133;51.012;-1.648;2023-01-13T17:44:04;33.42;;;12.30;;
53479;SDS011;56133;51.012;-1.648;2023-01-13T17:46:30;56.05;;;17.52;;
53479;SDS011;56133;51.012;-1.648;2023-01-13T17:48:55;51.85;;;21.98;;
53479;SDS011;56133;51.012;-1.648;2023-01-13T17:51:20;55.92;;;25.52;;
53479;SDS011;56133;51.012;-1.648;2023-01-13T17:53:49;72.28;;;33.08;;
53479;SDS011;56133;51.012;-1.648;2023-01-13T17:56:16;62.25;;;25.88;;
53479;SDS011;56133;51.012;-1.648;2023-01-13T17:58:42;57.30;;;22.63;;
53479;SDS011;56133;51.012;-1.648;2023-01-13T18:01:15;36.55;;;11.80;;
53479;SDS011;56133;51.012;-1.648;2023-01-13T18:03:43;37.47;;;8.30;;